Time;durP1;ratioP1;P1;durP2;ratioP2;P2;SDS_P1;SDS_P2;PMS_P1;PMS_P2;Temp;Humidity;BMP_temperature;BMP_pressure;BME280_temperature;BME280_humidity;BME280_pressure;Samples;Min_cycle;Max_cycle;Signal;HPM_P1;HPM_P2
2023/03/02 00:01:31;;;;;;;15.57;9.85;;;3.40;99.90;;;;;;6215673;23;20025;-94
2023/03/02 00:03:59;;;;;;;15.70;10.13;;;3.50;99.90;;;;;;6190127;23;20531;-94
2023/03/02 00:06:28;;;;;;;16.88;9.82;;;3.70;99.90;;;;;;6166054;23;20096;-94
2023/03/02 00:08:54;;;;;;;16.58;10.23;;;3.60;99.90;;;;;;6189678;23;20043;-93
2023/03/02 00:11:20;;;;;;;17.75;11.45;;;3.50;99.90;;;;;;6141812;23;20040;-94
2023/03/02 00:13:46;;;;;;;18.95;10.65;;;3.40;99.90;;;;;;6166601;23;20066;-95
2023/03/02 00:16:12;;;;;;;15.93;10.25;;;3.50;99.90;;;;;;6165161;23;20094;-95
2023/03/02 00:18:38;;;;;;;18.40;11.45;;;3.50;99.90;;;;;;6165747;23;20016;-94
2023/03/02 00:21:03;;;;;;;17.27;10.85;;;3.80;99.90;;;;;;6138920;23;20481;-94
2023/03/02 00:23:29;;;;;;;17.45;10.40;;;3.30;99.90;;;;;;6162383;23;20048;-94
2023/03/02 00:25:55;;;;;;;19.73;11.23;;;3.20;99.90;;;;;;6164567;23;20013;-95
2023/03/02 00:28:21;;;;;;;15.30;10.00;;;3.50;99.90;;;;;;6139124;23;20021;-94
2023/03/02 00:30:46;;;;;;;16.05;9.70;;;3.30;99.90;;;;;;6190924;23;20082;-93
2023/03/02 00:33:12;;;;;;;14.07;9.70;;;3.40;99.90;;;;;;6164792;23;20012;-94
2023/03/02 00:35:39;;;;;;;14.55;8.77;;;3.20;99.90;;;;;;6139525;23;20012;-95
2023/03/02 00:38:06;;;;;;;15.73;9.90;;;3.40;99.90;;;;;;6139335;23;20012;-94
2023/03/02 00:40:33;;;;;;;16.75;9.80;;;3.30;99.90;;;;;;6187674;23;20012;-94
2023/03/02 00:42:59;;;;;;;17.33;10.40;;;3.80;99.90;;;;;;6187944;23;20468;-94
2023/03/02 00:45:25;;;;;;;17.42;10.43;;;3.20;99.90;;;;;;6165396;23;20099;-95
2023/03/02 00:47:51;;;;;;;23.42;12.50;;;3.20;99.90;;;;;;6189044;23;20038;-94
2023/03/02 00:50:17;;;;;;;26.10;14.43;;;3.30;99.90;;;;;;6139044;23;20021;-94
2023/03/02 00:52:43;;;;;;;34.65;17.02;;;;;;;;;;6141889;23;20020;-94
2023/03/02 00:55:09;;;;;;;30.25;15.75;;;3.40;99.90;;;;;;6190240;23;20017;-94
2023/03/02 00:57:34;;;;;;;34.08;16.50;;;3.20;99.90;;;;;;6165693;23;20034;-94
2023/03/02 01:00:00;;;;;;;30.65;15.73;;;3.30;99.90;;;;;;6187706;23;20389;-94
2023/03/02 01:02:26;;;;;;;34.55;16.10;;;3.40;99.90;;;;;;6165500;23;20052;-95
2023/03/02 01:04:53;;;;;;;31.63;15.88;;;3.10;99.90;;;;;;6190955;23;20050;-95
2023/03/02 01:07:20;;;;;;;30.73;15.43;;;3.10;99.90;;;;;;6139801;23;20059;-94
2023/03/02 01:09:47;;;;;;;31.30;16.27;;;3.20;99.90;;;;;;6166233;23;20484;-94
2023/03/02 01:12:13;;;;;;;36.58;17.33;;;3.30;99.90;;;;;;6166096;23;20101;-94
2023/03/02 01:14:42;;;;;;;29.63;16.17;;;3.30;99.90;;;;;;6190990;23;20032;-95
2023/03/02 01:17:09;;;;;;;27.85;15.00;;;4.10;99.90;;;;;;6190105;23;20024;-94
2023/03/02 01:19:35;;;;;;;32.60;16.65;;;3.50;99.90;;;;;;6190856;23;20030;-95
2023/03/02 01:22:01;;;;;;;30.42;15.88;;;3.30;99.90;;;;;;6213360;23;20021;-95
2023/03/02 01:24:27;;;;;;;31.05;15.63;;;3.50;99.90;;;;;;6190220;23;20039;-93
2023/03/02 01:26:54;;;;;;;34.47;16.90;;;3.50;99.90;;;;;;6189053;23;20017;-94
2023/03/02 01:29:20;;;;;;;33.58;16.85;;;3.20;99.90;;;;;;6142060;23;20020;-94
2023/03/02 01:31:45;;;;;;;41.85;19.52;;;3.20;99.90;;;;;;6164915;23;20511;-94
2023/03/02 01:34:11;;;;;;;41.58;20.55;;;3.20;99.90;;;;;;6166016;23;20474;-95
2023/03/02 01:36:37;;;;;;;48.95;22.23;;;4.80;99.90;;;;;;6190703;23;20005;-95
2023/03/02 01:39:06;;;;;;;40.83;18.42;;;3.60;99.90;;;;;;6215685;23;20497;-95
2023/03/02 01:41:31;;;;;;;37.08;16.95;;;2.10;99.90;;;;;;6164984;23;20027;-95
2023/03/02 01:43:57;;;;;;;36.95;18.27;;;3.30;99.90;;;;;;6140215;23;20032;-94
2023/03/02 01:46:25;;;;;;;35.13;17.42;;;3.40;99.90;;;;;;6164427;23;20027;-94
2023/03/02 01:48:53;;;;;;;37.00;17.90;;;3.70;99.90;;;;;;6189303;23;20027;-95
2023/03/02 01:51:22;;;;;;;33.08;17.10;;;3.50;99.90;;;;;;6189434;23;20021;-95
2023/03/02 01:53:56;;;;;;;28.52;15.45;;;3.70;99.90;;;;;;6190489;23;20351;-94
2023/03/02 01:56:35;;;;;;;28.77;15.30;;;3.10;99.90;;;;;;6214455;23;20016;-95
2023/03/02 01:59:08;;;;;;;31.17;15.98;;;3.70;99.90;;;;;;6190389;23;20016;-94
2023/03/02 02:01:38;;;;;;;35.38;17.25;;;3.70;99.90;;;;;;6164475;23;20028;-93
2023/03/02 02:04:05;;;;;;;32.55;16.95;;;3.20;99.90;;;;;;6190491;23;20051;-94
2023/03/02 02:06:39;;;;;;;31.65;17.48;;;4.60;99.90;;;;;;6190190;23;20017;-94
2023/03/02 02:09:09;;;;;;;27.33;15.10;;;3.40;99.90;;;;;;6187074;23;20086;-94
2023/03/02 02:11:35;;;;;;;26.00;13.52;;;3.90;99.90;;;;;;6187485;23;20012;-94
2023/03/02 02:14:02;;;;;;;23.85;13.25;;;3.40;99.90;;;;;;6189078;23;20098;-94
2023/03/02 02:16:31;;;;;;;24.20;13.13;;;4.20;99.90;;;;;;6162298;23;20023;-95
2023/03/02 02:18:57;;;;;;;23.38;13.25;;;4.10;99.90;;;;;;6189954;23;20031;-95
2023/03/02 02:21:25;;;;;;;24.58;12.95;;;3.40;99.90;;;;;;6164612;23;20013;-95
2023/03/02 02:24:24;;;;;;;26.38;12.95;;;3.20;99.90;;;;;;6189923;23;20514;-95
2023/03/02 02:26:53;;;;;;;26.30;13.77;;;3.40;99.90;;;;;;6109432;23;20074;-94
2023/03/02 02:29:25;;;;;;;26.65;15.68;;;3.40;99.90;;;;;;6189545;23;20016;-95
2023/03/02 02:32:05;;;;;;;26.80;14.57;;;3.50;99.90;;;;;;6187506;23;20450;-95
2023/03/02 02:34:41;;;;;;;25.38;13.60;;;3.40;99.90;;;;;;6188497;23;20020;-95
2023/03/02 02:37:23;;;;;;;26.63;13.90;;;3.30;99.90;;;;;;6189142;23;20016;-94
2023/03/02 02:39:50;;;;;;;24.58;13.90;;;3.30;99.90;;;;;;6189707;23;20059;-94
2023/03/02 02:42:24;;;;;;;23.40;13.48;;;3.40;99.90;;;;;;6187106;23;20450;-94
2023/03/02 02:44:54;;;;;;;21.60;11.85;;;3.20;99.90;;;;;;6189005;23;20017;-95
2023/03/02 02:47:21;;;;;;;25.50;14.98;;;4.60;99.90;;;;;;6189096;23;20005;-94
2023/03/02 02:49:51;;;;;;;26.02;13.98;;;3.00;99.90;;;;;;6191119;23;20043;-95
2023/03/02 02:52:20;;;;;;;24.35;14.30;;;3.90;99.90;;;;;;6188631;23;20017;-93
2023/03/02 02:54:48;;;;;;;26.58;13.68;;;4.30;99.90;;;;;;6190592;23;20021;-94
2023/03/02 02:57:16;;;;;;;25.75;14.27;;;3.20;99.90;;;;;;6188191;23;20138;-93
2023/03/02 02:59:46;;;;;;;23.83;13.77;;;3.20;99.90;;;;;;6189318;23;20021;-95
2023/03/02 03:02:24;;;;;;;26.13;14.75;;;3.30;99.90;;;;;;6188193;23;20027;-94
2023/03/02 03:04:50;;;;;;;25.48;13.93;;;3.00;99.90;;;;;;6163956;23;20016;-94
2023/03/02 03:07:22;;;;;;;25.92;14.30;;;3.20;99.90;;;;;;6189253;23;20008;-95
2023/03/02 03:09:54;;;;;;;23.80;13.30;;;3.00;99.90;;;;;;6189685;23;20016;-95
2023/03/02 03:12:23;;;;;;;28.95;15.50;;;3.00;99.90;;;;;;6164662;23;20017;-94
2023/03/02 03:14:50;;;;;;;24.55;13.38;;;2.90;99.90;;;;;;6190067;23;20009;-95
2023/03/02 03:17:16;;;;;;;26.23;14.48;;;3.10;99.90;;;;;;6186916;23;20040;-94
2023/03/02 03:19:45;;;;;;;23.98;13.95;;;3.30;99.90;;;;;;6165218;23;20017;-95
2023/03/02 03:22:13;;;;;;;28.15;14.63;;;3.10;99.90;;;;;;6189986;23;20016;-95
2023/03/02 03:24:41;;;;;;;26.35;14.82;;;2.90;99.90;;;;;;6191601;23;20017;-96
2023/03/02 03:27:08;;;;;;;26.88;15.05;;;3.10;99.90;;;;;;6190737;23;20017;-95
2023/03/02 03:29:35;;;;;;;30.30;15.43;;;3.60;99.90;;;;;;6190822;23;20017;-94
2023/03/02 03:32:03;;;;;;;25.17;13.38;;;2.90;99.90;;;;;;6192581;23;20031;-95
2023/03/02 03:34:30;;;;;;;28.60;16.08;;;3.00;99.90;;;;;;6193264;23;19996;-95
2023/03/02 03:37:00;;;;;;;27.27;15.00;;;3.50;99.90;;;;;;6166219;23;20019;-95
2023/03/02 03:39:30;;;;;;;28.77;15.35;;;2.90;99.90;;;;;;6167570;23;20021;-95
2023/03/02 03:41:56;;;;;;;31.65;15.93;;;3.00;99.90;;;;;;6191842;23;20026;-95
2023/03/02 03:44:22;;;;;;;29.23;16.05;;;2.90;99.90;;;;;;6166015;23;20013;-95
2023/03/02 03:46:49;;;;;;;27.15;14.15;;;3.10;99.90;;;;;;6190983;23;20024;-95
2023/03/02 03:49:15;;;;;;;31.02;15.13;;;3.10;99.90;;;;;;6190933;23;20388;-95
2023/03/02 03:51:41;;;;;;;31.13;15.98;;;3.00;99.90;;;;;;6167506;23;20011;-95
2023/03/02 03:54:08;;;;;;;37.67;16.98;;;3.00;99.90;;;;;;6166419;23;20021;-95
2023/03/02 03:56:40;;;;;;;39.28;17.63;;;3.10;99.90;;;;;;6190290;23;20477;-94
2023/03/02 03:59:08;;;;;;;37.15;17.77;;;3.10;99.90;;;;;;6190059;23;20025;-94
2023/03/02 04:01:43;;;;;;;40.08;19.67;;;3.00;99.90;;;;;;6162109;23;20421;-94
2023/03/02 04:04:12;;;;;;;43.70;18.48;;;3.20;99.90;;;;;;6190029;23;20083;-95
2023/03/02 04:06:38;;;;;;;40.05;19.17;;;3.00;99.90;;;;;;6190519;23;20048;-95
2023/03/02 04:09:05;;;;;;;40.47;18.67;;;3.00;99.90;;;;;;6166620;23;20016;-95
2023/03/02 04:11:33;;;;;;;44.75;19.75;;;3.10;99.90;;;;;;6165343;23;20047;-95
2023/03/02 04:13:59;;;;;;;50.28;23.05;;;3.10;99.90;;;;;;6190747;23;20017;-94
2023/03/02 04:16:29;;;;;;;56.78;23.33;;;3.20;99.90;;;;;;6188891;23;20026;-95
2023/03/02 04:18:55;;;;;;;56.90;22.92;;;3.20;99.90;;;;;;6191293;23;20070;-94
2023/03/02 04:21:22;;;;;;;55.55;21.20;;;1.40;99.90;;;;;;6166724;23;20013;-94
2023/03/02 04:23:47;;;;;;;53.00;22.10;;;3.20;99.90;;;;;;6190768;23;20017;-95
2023/03/02 04:26:13;;;;;;;54.38;21.33;;;2.90;99.90;;;;;;6167552;23;20084;-94
2023/03/02 04:28:39;;;;;;;62.33;22.58;;;2.90;99.90;;;;;;6190735;23;20013;-96
2023/03/02 04:31:05;;;;;;;62.97;23.92;;;3.30;99.90;;;;;;6191411;23;20079;-95
2023/03/02 04:33:31;;;;;;;59.08;22.23;;;4.40;99.90;;;;;;6164937;23;20021;-96
2023/03/02 04:35:57;;;;;;;62.75;24.85;;;2.70;99.90;;;;;;6192082;23;20046;-94
2023/03/02 04:38:23;;;;;;;78.10;25.50;;;2.80;99.90;;;;;;6166827;23;20024;-96
2023/03/02 04:40:49;;;;;;;74.18;25.08;;;3.50;99.90;;;;;;6142386;23;20468;-96
2023/03/02 04:43:14;;;;;;;88.68;24.48;;;2.70;99.90;;;;;;6189894;23;20015;-94
2023/03/02 04:45:40;;;;;;;79.00;23.95;;;4.40;99.90;;;;;;6165387;23;20031;-94
2023/03/02 04:48:06;;;;;;;76.70;19.85;;;3.80;99.90;;;;;;6140532;23;20023;-94
2023/03/02 04:50:33;;;;;;;66.38;20.20;;;2.70;99.90;;;;;;6164430;23;20044;-94
2023/03/02 04:52:59;;;;;;;88.95;19.60;;;2.80;99.90;;;;;;6164574;23;20583;-95
2023/03/02 04:55:27;;;;;;;59.75;18.98;;;2.70;99.90;;;;;;6190485;23;20020;-95
2023/03/02 04:57:52;;;;;;;89.35;20.80;;;2.80;99.90;;;;;;6190572;23;20012;-95
2023/03/02 05:00:22;;;;;;;59.25;19.30;;;2.70;99.90;;;;;;6166631;23;20071;-96
2023/03/02 05:02:48;;;;;;;53.83;20.20;;;2.60;99.90;;;;;;6142102;23;20031;-95
2023/03/02 05:05:20;;;;;;;56.08;17.13;;;2.70;99.90;;;;;;6164933;23;20017;-95
2023/03/02 05:07:46;;;;;;;80.10;18.75;;;2.70;99.90;;;;;;6190918;23;20028;-95
2023/03/02 05:10:14;;;;;;;69.43;19.67;;;3.80;99.90;;;;;;6190008;23;20119;-95
2023/03/02 05:15:29;;;;;;;95.65;19.02;;;2.70;99.90;;;;;;6193839;23;20040;-95
2023/03/02 05:17:56;;;;;;;81.57;18.15;;;3.20;99.90;;;;;;6190737;23;20079;-94
2023/03/02 05:20:30;;;;;;;90.10;17.70;;;2.50;99.90;;;;;;6190102;23;20059;-94
2023/03/02 05:23:03;;;;;;;56.95;14.88;;;2.50;99.90;;;;;;6168014;23;20096;-94
2023/03/02 05:25:31;;;;;;;68.72;15.15;;;2.60;99.90;;;;;;6165143;23;20100;-94
2023/03/02 05:27:57;;;;;;;92.88;16.33;;;2.50;99.90;;;;;;6189371;23;20012;-95
2023/03/02 05:30:23;;;;;;;61.88;13.63;;;2.70;99.90;;;;;;6165932;23;20058;-95
2023/03/02 05:32:55;;;;;;;65.13;14.55;;;2.40;99.90;;;;;;6191260;23;20016;-96
2023/03/02 05:35:30;;;;;;;128.98;18.88;;;2.80;99.90;;;;;;6169811;23;20023;-94
2023/03/02 05:37:56;;;;;;;87.28;16.65;;;4.00;99.90;;;;;;6190380;23;20044;-94
2023/03/02 05:40:22;;;;;;;61.30;15.05;;;2.50;99.90;;;;;;6164603;23;20075;-95
2023/03/02 05:42:49;;;;;;;64.65;16.38;;;2.40;99.90;;;;;;6141017;23;20076;-94
2023/03/02 05:45:25;;;;;;;60.33;14.90;;;3.20;99.90;;;;;;6164733;23;20001;-95
2023/03/02 05:47:51;;;;;;;62.45;14.93;;;2.40;99.90;;;;;;6190805;23;20000;-95
2023/03/02 05:50:17;;;;;;;51.47;15.10;;;2.60;99.90;;;;;;6189552;23;20016;-94
2023/03/02 05:52:46;;;;;;;61.25;15.30;;;2.40;99.90;;;;;;6166505;23;20013;-95
2023/03/02 05:55:15;;;;;;;75.18;14.57;;;3.00;99.90;;;;;;6164847;23;20012;-94
2023/03/02 05:57:41;;;;;;;128.60;17.50;;;2.50;99.90;;;;;;6189286;23;20020;-94
2023/03/02 06:00:08;;;;;;;42.08;12.35;;;2.50;99.90;;;;;;6140223;23;20628;-94
2023/03/02 06:02:36;;;;;;;59.22;15.02;;;2.60;99.90;;;;;;6166365;23;20020;-95
2023/03/02 06:05:02;;;;;;;123.78;18.38;;;2.90;99.90;;;;;;6189693;23;20031;-95
2023/03/02 06:07:28;;;;;;;65.63;15.18;;;2.60;99.90;;;;;;6166238;23;20016;-94
2023/03/02 06:09:54;;;;;;;60.53;15.85;;;3.90;99.90;;;;;;6165272;23;20096;-95
2023/03/02 06:12:20;;;;;;;62.58;16.20;;;3.20;99.90;;;;;;6189671;23;20087;-94
2023/03/02 06:14:46;;;;;;;68.43;16.02;;;0.30;99.90;;;;;;6162464;23;20047;-95
2023/03/02 06:17:12;;;;;;;95.13;17.02;;;;;;;;;;6188900;23;20048;-94
2023/03/02 06:19:38;;;;;;;65.05;15.13;;;2.50;99.90;;;;;;6189916;23;20024;-95
2023/03/02 06:22:05;;;;;;;56.20;15.77;;;2.40;99.90;;;;;;6165946;23;20017;-94
2023/03/02 06:24:32;;;;;;;97.68;18.33;;;2.60;99.90;;;;;;6164673;23;20020;-96
2023/03/02 06:26:58;;;;;;;76.30;18.17;;;3.20;99.90;;;;;;6166091;23;20438;-95
2023/03/02 06:29:24;;;;;;;70.53;16.83;;;2.80;99.90;;;;;;6190424;23;20078;-94
2023/03/02 06:31:49;;;;;;;102.32;19.15;;;2.50;99.90;;;;;;6141379;23;20009;-95
2023/03/02 06:34:17;;;;;;;78.60;18.40;;;2.50;99.90;;;;;;6188657;23;20023;-94
2023/03/02 06:36:42;;;;;;;68.57;16.98;;;3.20;99.90;;;;;;6162339;23;20016;-94
2023/03/02 06:39:14;;;;;;;54.55;17.42;;;2.60;99.90;;;;;;6162944;23;20096;-94
2023/03/02 06:41:45;;;;;;;102.60;18.80;;;3.00;99.90;;;;;;6212142;23;20023;-94
2023/03/02 06:44:12;;;;;;;72.05;17.20;;;2.70;99.90;;;;;;6189525;23;20020;-96
2023/03/02 06:46:39;;;;;;;75.03;18.40;;;3.20;99.90;;;;;;6190493;23;20016;-95
2023/03/02 06:49:05;;;;;;;78.45;20.30;;;2.40;99.90;;;;;;6188958;23;20381;-94
2023/03/02 06:51:31;;;;;;;79.90;16.60;;;2.40;99.90;;;;;;6191080;23;20017;-94
2023/03/02 06:53:57;;;;;;;83.68;16.50;;;2.90;99.90;;;;;;6165088;23;20017;-95
2023/03/02 06:56:24;;;;;;;118.78;23.35;;;2.30;99.90;;;;;;6190506;23;20076;-95
2023/03/02 06:58:50;;;;;;;128.10;19.27;;;2.20;99.90;;;;;;6165756;23;20115;-94
2023/03/02 07:01:17;;;;;;;79.97;16.75;;;2.30;99.90;;;;;;6141743;23;20075;-95
2023/03/02 07:03:44;;;;;;;72.45;15.60;;;2.20;99.90;;;;;;6189913;23;20025;-95
2023/03/02 07:06:11;;;;;;;78.43;17.33;;;-0.10;99.90;;;;;;6190315;23;20017;-94
2023/03/02 07:08:43;;;;;;;95.10;19.88;;;2.40;99.90;;;;;;6168050;23;20020;-95
2023/03/02 07:11:11;;;;;;;183.73;22.65;;;2.30;99.90;;;;;;6165841;23;20012;-94
2023/03/02 07:13:40;;;;;;;164.60;22.70;;;3.30;99.90;;;;;;6190323;23;20063;-95
2023/03/02 07:16:11;;;;;;;110.43;19.50;;;2.50;99.90;;;;;;6189738;23;20016;-95
2023/03/02 07:18:37;;;;;;;105.72;19.73;;;4.10;99.90;;;;;;6190291;23;20020;-95
2023/03/02 07:21:03;;;;;;;97.15;18.40;;;2.70;99.90;;;;;;6189522;23;20063;-94
2023/03/02 07:23:29;;;;;;;103.93;21.33;;;2.30;99.90;;;;;;6166576;23;20019;-95
2023/03/02 07:25:56;;;;;;;77.25;18.60;;;2.60;99.90;;;;;;6189463;23;20091;-95
2023/03/02 07:28:23;;;;;;;84.18;20.17;;;2.80;99.90;;;;;;6188124;23;20055;-94
2023/03/02 07:30:52;;;;;;;82.97;16.42;;;2.50;99.90;;;;;;6188346;23;20001;-95
2023/03/02 07:33:19;;;;;;;119.32;22.08;;;2.60;99.90;;;;;;6190598;23;20068;-95
2023/03/02 07:35:48;;;;;;;76.30;19.70;;;2.80;99.90;;;;;;6165660;23;20025;-94
2023/03/02 07:38:14;;;;;;;64.78;22.20;;;2.60;99.90;;;;;;6165257;23;20020;-94
2023/03/02 07:40:41;;;;;;;89.32;20.88;;;2.70;99.90;;;;;;6164818;23;20100;-95
2023/03/02 07:43:07;;;;;;;92.43;22.73;;;2.60;99.90;;;;;;6166859;23;20020;-94
2023/03/02 07:45:33;;;;;;;93.65;25.35;;;2.80;99.90;;;;;;6140977;23;20032;-95
2023/03/02 07:47:58;;;;;;;78.70;19.92;;;3.00;99.90;;;;;;6191198;23;20021;-95
2023/03/02 07:50:24;;;;;;;90.68;20.35;;;2.40;99.90;;;;;;6188891;23;20017;-94
2023/03/02 07:52:54;;;;;;;90.32;18.70;;;3.70;99.90;;;;;;6165579;23;20040;-94
2023/03/02 07:55:19;;;;;;;91.38;20.77;;;2.50;99.90;;;;;;6165757;23;20020;-94
2023/03/02 07:57:47;;;;;;;130.10;22.42;;;2.40;99.90;;;;;;6141616;23;20017;-95
2023/03/02 08:00:13;;;;;;;97.63;19.98;;;4.40;99.90;;;;;;6164592;23;20020;-95
2023/03/02 08:02:40;;;;;;;99.40;20.55;;;2.50;99.90;;;;;;6166872;23;20107;-95
2023/03/02 08:05:06;;;;;;;64.05;18.80;;;2.70;99.90;;;;;;6166205;23;20072;-95
2023/03/02 08:07:32;;;;;;;112.90;23.02;;;2.60;99.90;;;;;;6215470;23;20020;-95
2023/03/02 08:09:59;;;;;;;97.82;17.58;;;2.70;99.90;;;;;;6191502;23;20017;-95
2023/03/02 08:12:26;;;;;;;65.28;18.27;;;4.00;99.90;;;;;;6167631;23;20576;-95
2023/03/02 08:14:52;;;;;;;84.43;20.63;;;4.30;99.90;;;;;;6192790;23;20024;-94
2023/03/02 08:17:18;;;;;;;89.47;19.83;;;4.90;99.90;;;;;;6166945;23;20013;-95
2023/03/02 08:19:44;;;;;;;95.88;18.88;;;2.80;99.90;;;;;;6191374;23;20064;-94
2023/03/02 08:22:10;;;;;;;80.90;20.25;;;2.90;99.90;;;;;;6192001;23;20020;-94
2023/03/02 08:24:43;;;;;;;107.75;22.60;;;4.80;99.90;;;;;;6143415;23;20043;-94
2023/03/02 08:27:14;;;;;;;70.45;19.67;;;2.90;99.90;;;;;;6168296;23;20020;-93
2023/03/02 08:29:46;;;;;;;72.43;19.88;;;3.00;99.90;;;;;;6169449;23;20011;-94
2023/03/02 08:32:11;;;;;;;100.00;20.02;;;3.00;99.90;;;;;;6191985;23;20021;-95
2023/03/02 08:34:38;;;;;;;63.78;17.95;;;;;;;;;;6143542;23;20107;-95
2023/03/02 08:37:03;;;;;;;80.72;20.08;;;3.00;99.90;;;;;;6189945;23;20017;-96
2023/03/02 08:39:30;;;;;;;61.20;17.30;;;3.50;99.90;;;;;;6167003;23;20013;-95
2023/03/02 08:41:58;;;;;;;47.28;17.05;;;3.60;99.90;;;;;;6167054;23;20155;-95
2023/03/02 08:44:24;;;;;;;67.20;15.68;;;3.20;99.90;;;;;;6192271;23;20017;-95
2023/03/02 08:46:50;;;;;;;39.72;14.98;;;3.00;99.90;;;;;;6191450;23;20075;-96
2023/03/02 08:49:17;;;;;;;39.65;14.75;;;4.40;99.90;;;;;;6166816;23;20096;-95
2023/03/02 08:51:43;;;;;;;35.05;15.27;;;4.70;99.90;;;;;;6167421;23;20054;-95
2023/03/02 08:54:09;;;;;;;40.67;16.35;;;3.10;99.90;;;;;;6192596;23;20016;-94
2023/03/02 08:56:38;;;;;;;32.28;16.23;;;3.50;99.90;;;;;;6191015;23;20457;-94
2023/03/02 08:59:08;;;;;;;21.65;10.20;;;3.40;99.90;;;;;;6187598;23;20024;-95
2023/03/02 09:01:36;;;;;;;25.10;9.80;;;3.50;99.90;;;;;;6190477;23;20020;-95
2023/03/02 09:04:04;;;;;;;32.40;12.40;;;3.50;99.90;;;;;;6190840;23;20024;-96
2023/03/02 09:06:33;;;;;;;21.90;9.30;;;3.80;99.90;;;;;;6190513;23;20503;-95
2023/03/02 09:08:59;;;;;;;12.23;5.38;;;3.60;99.90;;;;;;6189053;23;20016;-94
2023/03/02 09:11:26;;;;;;;25.23;9.82;;;3.50;99.90;;;;;;6188929;23;20016;-95
2023/03/02 09:13:53;;;;;;;14.55;6.20;;;5.00;99.90;;;;;;6165624;23;20000;-95
2023/03/02 09:16:19;;;;;;;23.73;9.20;;;3.50;99.90;;;;;;6165552;23;20005;-95
2023/03/02 09:18:46;;;;;;;19.25;8.52;;;4.00;99.90;;;;;;6190726;23;20017;-95
2023/03/02 09:21:13;;;;;;;18.25;8.15;;;5.40;99.90;;;;;;6164300;23;20033;-94
2023/03/02 09:23:39;;;;;;;26.92;8.77;;;3.40;99.90;;;;;;6140958;23;20078;-95
2023/03/02 09:26:08;;;;;;;18.73;7.43;;;3.50;99.90;;;;;;6167718;23;20017;-95
2023/03/02 09:28:34;;;;;;;11.82;5.63;;;3.40;99.90;;;;;;6190950;23;20031;-95
2023/03/02 09:31:03;;;;;;;16.15;6.55;;;3.50;99.90;;;;;;6166158;23;20016;-95
2023/03/02 09:33:30;;;;;;;15.68;6.38;;;3.50;99.90;;;;;;6190793;23;20012;-94
2023/03/02 09:35:55;;;;;;;15.15;5.97;;;3.70;99.90;;;;;;6191335;23;20020;-95
2023/03/02 09:38:22;;;;;;;17.60;6.20;;;3.60;99.90;;;;;;6190950;23;20126;-94
2023/03/02 09:41:00;;;;;;;16.15;6.00;;;3.50;99.90;;;;;;6190720;23;20071;-95
2023/03/02 09:43:46;;;;;;;18.77;8.00;;;3.80;99.90;;;;;;6190061;23;20028;-94
2023/03/02 09:46:29;;;;;;;14.52;6.75;;;3.90;99.90;;;;;;6188454;23;20220;-96
2023/03/02 09:49:19;;;;;;;14.98;4.78;;;4.10;99.90;;;;;;6189859;23;20027;-95
2023/03/02 09:51:54;;;;;;;19.90;9.18;;;4.50;99.90;;;;;;6191376;23;20017;-95
2023/03/02 09:54:25;;;;;;;13.70;6.80;;;5.30;99.90;;;;;;6166266;23;20457;-96
2023/03/02 09:57:00;;;;;;;18.08;7.97;;;4.00;99.90;;;;;;6189372;23;20086;-95
2023/03/02 09:59:41;;;;;;;25.35;9.38;;;4.10;99.90;;;;;;6190008;23;20088;-94
2023/03/02 10:02:12;;;;;;;34.95;13.88;;;4.30;99.90;;;;;;6189711;23;20020;-96
2023/03/02 10:04:49;;;;;;;33.03;13.77;;;4.50;99.90;;;;;;6190175;23;20648;-95
2023/03/02 10:07:30;;;;;;;37.22;14.57;;;4.40;99.90;;;;;;6165274;23;20147;-95
2023/03/02 10:10:08;;;;;;;39.92;16.58;;;4.80;99.90;;;;;;6189261;23;20023;-94
2023/03/02 10:12:46;;;;;;;40.92;15.40;;;4.90;99.90;;;;;;6190305;23;20433;-95
2023/03/02 10:15:37;;;;;;;44.63;17.38;;;4.80;99.90;;;;;;6189324;23;20021;-94
2023/03/02 10:18:20;;;;;;;42.80;16.45;;;4.70;99.90;;;;;;6189980;23;20052;-94
2023/03/02 10:21:08;;;;;;;52.25;18.55;;;4.60;99.90;;;;;;6191280;23;20017;-94
2023/03/02 10:23:47;;;;;;;41.28;16.60;;;4.40;99.90;;;;;;6190863;23;20024;-94
2023/03/02 10:26:22;;;;;;;42.88;17.38;;;2.60;99.90;;;;;;6189635;23;20020;-95
2023/03/02 10:29:13;;;;;;;28.23;10.85;;;4.40;99.90;;;;;;6189288;23;20016;-95
2023/03/02 10:31:40;;;;;;;34.50;14.65;;;4.70;99.90;;;;;;6188662;23;20465;-95
2023/03/02 10:34:10;;;;;;;32.83;13.63;;;5.40;99.90;;;;;;6189353;23;20092;-95
2023/03/02 10:36:42;;;;;;;36.08;14.68;;;5.20;99.90;;;;;;6163456;23;20086;-95
2023/03/02 10:39:13;;;;;;;35.22;15.02;;;5.60;99.90;;;;;;6190736;23;20019;-95
2023/03/02 10:41:48;;;;;;;46.97;17.85;;;5.80;99.90;;;;;;6189641;23;20016;-95
2023/03/02 10:44:30;;;;;;;37.35;16.98;;;6.10;99.90;;;;;;6189475;23;20016;-95
2023/03/02 10:46:56;;;;;;;30.40;13.95;;;5.80;99.90;;;;;;6187170;23;20075;-94
2023/03/02 10:49:25;;;;;;;27.48;12.68;;;5.70;99.90;;;;;;6164415;23;20103;-95
2023/03/02 10:51:56;;;;;;;26.25;11.90;;;5.90;99.90;;;;;;6189465;23;20072;-95
2023/03/02 10:54:22;;;;;;;22.08;11.20;;;6.00;99.90;;;;;;6164109;23;20000;-95
2023/03/02 10:56:58;;;;;;;26.27;12.65;;;5.70;99.90;;;;;;6187626;23;20017;-94
2023/03/02 10:59:27;;;;;;;26.88;17.95;;;5.60;99.90;;;;;;6188954;23;20116;-95
2023/03/02 11:02:09;;;;;;;23.63;11.52;;;5.50;99.90;;;;;;6188925;23;20528;-95
2023/03/02 11:04:34;;;;;;;19.40;10.73;;;6.10;99.90;;;;;;6189934;23;20020;-95
2023/03/02 11:07:16;;;;;;;22.70;11.38;;;6.50;99.90;;;;;;6189729;23;20101;-95
2023/03/02 11:09:43;;;;;;;21.13;11.88;;;7.00;99.90;;;;;;6187104;23;20075;-95
2023/03/02 11:12:19;;;;;;;18.35;9.68;;;7.30;99.90;;;;;;6165246;23;20009;-95
2023/03/02 11:14:48;;;;;;;16.27;9.95;;;6.90;99.90;;;;;;6164976;23;20062;-95
2023/03/02 11:17:39;;;;;;;21.65;12.48;;;7.10;99.90;;;;;;6139412;23;20382;-95
2023/03/02 11:20:29;;;;;;;14.52;9.10;;;7.20;99.90;;;;;;6188857;23;20095;-95
2023/03/02 11:23:01;;;;;;;17.95;10.15;;;7.30;99.90;;;;;;6188502;23;20091;-94
2023/03/02 11:25:37;;;;;;;15.55;9.55;;;7.50;99.90;;;;;;6189276;23;20067;-95
2023/03/02 11:28:33;;;;;;;15.60;10.13;;;5.30;99.90;;;;;;6164952;23;20020;-94
2023/03/02 11:31:06;;;;;;;14.73;8.52;;;7.40;99.90;;;;;;6189873;23;20430;-94
2023/03/02 11:34:01;;;;;;;15.93;9.20;;;7.40;99.90;;;;;;6190955;23;20095;-95
2023/03/02 11:37:05;;;;;;;12.52;7.85;;;7.00;99.90;;;;;;6190366;23;20051;-95
2023/03/02 11:39:44;;;;;;;14.45;8.57;;;6.30;99.90;;;;;;6189560;23;20687;-95
2023/03/02 11:42:30;;;;;;;11.85;7.43;;;7.00;99.90;;;;;;6187961;23;20048;-95
2023/03/02 11:45:14;;;;;;;13.27;7.97;;;6.70;99.90;;;;;;6192310;23;20095;-95
2023/03/02 11:48:04;;;;;;;12.57;7.90;;;7.20;99.90;;;;;;6192484;23;20074;-94
2023/03/02 11:50:37;;;;;;;12.90;7.97;;;7.50;99.90;;;;;;6196177;23;20021;-94
2023/03/02 11:53:30;;;;;;;15.48;8.82;;;5.20;99.90;;;;;;6219955;23;20047;-95
2023/03/02 11:55:59;;;;;;;14.02;8.48;;;8.40;99.90;;;;;;6196950;23;20023;-96
2023/03/02 11:58:28;;;;;;;13.63;8.48;;;6.40;99.90;;;;;;6193687;23;20375;-94
2023/03/02 12:00:55;;;;;;;11.55;7.10;;;6.40;99.90;;;;;;6191200;23;20043;-94
2023/03/02 12:03:23;;;;;;;16.88;8.93;;;6.30;99.90;;;;;;6190101;23;20025;-95
2023/03/02 12:06:35;;;;;;;14.35;7.88;;;5.90;99.90;;;;;;6193866;23;20084;-95
2023/03/02 12:09:32;;;;;;;12.85;7.78;;;6.60;99.90;;;;;;6193773;23;20091;-96
2023/03/02 12:12:36;;;;;;;11.55;7.40;;;6.30;99.90;;;;;;6191591;23;20020;-95
2023/03/02 12:15:02;;;;;;;13.02;7.85;;;5.80;99.90;;;;;;6189954;23;20016;-95
2023/03/02 12:17:29;;;;;;;13.55;7.65;;;6.20;99.90;;;;;;6166625;23;20017;-95
2023/03/02 12:20:28;;;;;;;12.15;7.15;;;5.90;99.90;;;;;;6189333;23;20021;-95
2023/03/02 12:23:06;;;;;;;15.60;8.38;;;6.20;99.90;;;;;;6180008;23;20030;-95
2023/03/02 12:25:50;;;;;;;12.45;7.32;;;6.40;99.90;;;;;;6190139;23;20012;-94
2023/03/02 12:29:01;;;;;;;15.80;7.90;;;6.10;99.90;;;;;;6190202;23;20017;-95
2023/03/02 12:31:48;;;;;;;13.13;7.83;;;5.40;99.90;;;;;;6190603;23;20051;-94
2023/03/02 12:34:23;;;;;;;13.55;7.20;;;6.20;99.90;;;;;;6169469;23;20247;-95
2023/03/02 12:36:57;;;;;;;11.70;7.40;;;6.20;99.90;;;;;;6195928;23;20017;-95
2023/03/02 12:39:49;;;;;;;14.88;8.15;;;7.00;99.90;;;;;;6194690;23;20032;-96
2023/03/02 12:42:36;;;;;;;12.60;7.45;;;4.30;99.90;;;;;;6190435;23;20012;-94
2023/03/02 12:45:40;;;;;;;14.43;7.90;;;6.10;99.90;;;;;;6192046;23;20023;-95
2023/03/02 12:48:29;;;;;;;13.18;7.30;;;6.00;99.90;;;;;;6190531;23;20016;-95
2023/03/02 12:51:01;;;;;;;13.65;7.90;;;6.40;99.90;;;;;;6169029;23;20024;-96
2023/03/02 12:53:30;;;;;;;13.43;7.78;;;6.60;99.90;;;;;;6143276;23;20040;-95
2023/03/02 12:55:59;;;;;;;12.52;7.57;;;6.80;99.90;;;;;;6168679;23;20104;-95
2023/03/02 12:58:32;;;;;;;13.23;8.57;;;5.30;99.90;;;;;;6146983;23;20021;-95